Time;durP1;ratioP1;P1;durP2;ratioP2;P2;SDS_P1;SDS_P2;PMS_P1;PMS_P2;Temp;Humidity;BMP_temperature;BMP_pressure;BME280_temperature;BME280_humidity;BME280_pressure;Samples;Min_cycle;Max_cycle;Signal;HPM_P1;HPM_P2
2021/01/13 00:01:30;;;;;;;;;;;;;;;22.69;32.98;101843.06;3096800;28;115956;-68
2021/01/13 00:03:01;;;;;;;;;;;;;;;22.70;33.21;101834.38;3094125;28;114848;-67
2021/01/13 00:04:34;;;;;;;;;;;;;;;22.71;33.42;101838.03;3098467;28;115223;-67
2021/01/13 00:06:05;;;;;;;;;;;;;;;22.70;33.31;101840.00;3110247;27;114701;-68
2021/01/13 00:07:36;;;;;;;;;;;;;;;22.71;33.26;101840.84;3098845;27;114628;-67
2021/01/13 00:09:07;;;;;;;;;;;;;;;22.71;33.26;101838.03;3102861;28;115132;-68
2021/01/13 00:10:38;;;;;;;;;;;;;;;22.71;33.32;101836.06;3103136;28;115790;-68
2021/01/13 00:12:10;;;;;;;;;;;;;;;22.72;33.31;101825.59;3097789;28;114132;-68
2021/01/13 00:13:43;;;;;;;;;;;;;;;22.71;33.53;101830.41;3094563;28;114014;-67
2021/01/13 00:15:15;;;;;;;;;;;;;;;22.71;33.57;101824.78;3094506;28;114332;-69
2021/01/13 00:16:47;;;;;;;;;;;;;;;22.70;33.56;101823.09;3095835;28;113970;-68
2021/01/13 00:18:18;;;;;;;;;;;;;;;22.69;33.63;101818.56;3098683;28;114193;-67
2021/01/13 00:19:50;;;;;;;;;;;;;;;22.70;33.56;101819.44;3096048;28;114553;-67
2021/01/13 00:21:21;;;;;;;;;;;;;;;22.69;33.57;101814.91;3097100;28;114201;-67
2021/01/13 00:22:53;;;;;;;;;;;;;;;22.67;33.58;101808.75;3091488;28;113920;-67
2021/01/13 00:24:24;;;;;;;;;;;;;;;22.68;33.58;101808.44;3089215;28;116007;-61
2021/01/13 00:25:55;;;;;;;;;;;;;;;22.66;34.25;101810.72;3097539;28;115249;-61
2021/01/13 00:27:27;;;;;;;;;;;;;;;22.67;33.96;101811.56;3097649;28;113697;-61
2021/01/13 00:28:58;;;;;;;;;;;;;;;22.66;33.98;101816.38;3090370;28;114232;-61
2021/01/13 00:30:29;;;;;;;;;;;;;;;22.65;34.20;101814.69;3108717;28;114500;-57
2021/01/13 00:32:01;;;;;;;;;;;;;;;22.62;34.20;101815.28;3102114;28;114355;-57
2021/01/13 00:33:33;;;;;;;;;;;;;;;22.63;34.17;101814.13;3101219;28;114540;-57
2021/01/13 00:35:05;;;;;;;;;;;;;;;22.61;34.42;101806.00;3095900;28;114078;-57
2021/01/13 00:36:37;;;;;;;;;;;;;;;22.59;34.37;101808.25;3095654;28;113899;-57
2021/01/13 00:38:09;;;;;;;;;;;;;;;22.58;34.26;101800.94;3089586;28;114545;-57
2021/01/13 00:39:42;;;;;;;;;;;;;;;22.57;34.51;101802.09;3089977;28;114486;-57
2021/01/13 00:41:16;;;;;;;;;;;;;;;22.55;34.46;101801.56;3094763;28;113999;-57
2021/01/13 00:42:48;;;;;;;;;;;;;;;22.54;34.28;101797.06;3095417;28;115045;-56
2021/01/13 00:44:20;;;;;;;;;;;;;;;22.52;34.58;101787.25;3093730;28;114835;-56
2021/01/13 00:45:51;;;;;;;;;;;;;;;22.50;34.57;101793.16;3092595;28;115776;-56
2021/01/13 00:47:22;;;;;;;;;;;;;;;22.50;34.23;101789.50;3093572;28;115947;-56
2021/01/13 00:48:53;;;;;;;;;;;;;;;22.48;34.37;101784.19;3089223;28;115415;-57
2021/01/13 00:50:25;;;;;;;;;;;;;;;22.46;34.45;101786.47;3092629;28;114120;-57
2021/01/13 00:51:56;;;;;;;;;;;;;;;22.45;34.61;101789.56;3093697;28;115152;-56
2021/01/13 00:53:27;;;;;;;;;;;;;;;22.43;34.51;101780.59;3095636;28;115070;-57
2021/01/13 00:54:58;;;;;;;;;;;;;;;22.41;34.68;101780.91;3094460;28;115132;-56
2021/01/13 00:56:30;;;;;;;;;;;;;;;22.40;34.46;101779.22;3095829;28;116294;-56
2021/01/13 00:58:01;;;;;;;;;;;;;;;22.40;34.68;101778.38;3095843;28;115303;-56
2021/01/13 00:59:32;;;;;;;;;;;;;;;22.38;34.53;101780.66;3094367;28;115317;-63
2021/01/13 01:01:04;;;;;;;;;;;;;;;22.36;34.63;101788.56;3095744;28;115562;-64
2021/01/13 01:02:36;;;;;;;;;;;;;;;22.35;34.72;101781.28;3088455;28;114569;-64
2021/01/13 01:04:08;;;;;;;;;;;;;;;22.32;34.79;101787.50;3094175;28;116018;-64
2021/01/13 01:05:39;;;;;;;;;;;;;;;22.31;34.89;101781.03;3093945;28;114978;-64
2021/01/13 01:07:10;;;;;;;;;;;;;;;22.29;34.74;101783.31;3088955;28;115918;-63
2021/01/13 01:08:41;;;;;;;;;;;;;;;22.29;34.68;101785.28;3097689;28;115468;-63
2021/01/13 01:10:17;;;;;;;;;;;;;;;22.25;34.96;101776.63;3096683;28;116694;-63
2021/01/13 01:11:48;;;;;;;;;;;;;;;22.25;34.70;101778.59;3087101;28;115929;-63
2021/01/13 01:13:20;;;;;;;;;;;;;;;22.23;34.67;101783.66;3095949;28;116007;-63
2021/01/13 01:14:51;;;;;;;;;;;;;;;22.21;34.93;101783.13;3092081;28;115749;-63
2021/01/13 01:16:30;;;;;;;;;;;;;;;22.18;34.75;101782.59;3089922;28;114779;-63
2021/01/13 01:18:01;;;;;;;;;;;;;;;22.17;35.08;101782.88;3086029;28;114293;-64
2021/01/13 01:19:32;;;;;;;;;;;;;;;22.17;34.89;101780.06;3085442;28;114345;-63
2021/01/13 01:21:06;;;;;;;;;;;;;;;22.14;34.95;101780.66;3085944;28;116360;-64
2021/01/13 01:22:51;;;;;;;;;;;;;;;22.13;35.62;101773.34;3087218;28;114194;-64
2021/01/13 01:24:22;;;;;;;;;;;;;;;22.12;35.19;101774.53;3091415;28;113960;-64
2021/01/13 01:25:53;;;;;;;;;;;;;;;22.11;35.29;101775.66;3096334;28;114066;-63
2021/01/13 01:27:26;;;;;;;;;;;;;;;22.08;35.49;101779.03;3091731;28;114011;-62
2021/01/13 01:28:57;;;;;;;;;;;;;;;22.07;35.43;101775.41;3088358;28;113878;-62
2021/01/13 01:30:29;;;;;;;;;;;;;;;22.05;35.57;101772.03;3088169;28;113840;-61
2021/01/13 01:32:00;;;;;;;;;;;;;;;22.05;35.28;101780.50;3087261;28;113987;-61
2021/01/13 01:33:31;;;;;;;;;;;;;;;22.03;35.29;101785.56;3097541;28;114285;-61
2021/01/13 01:35:03;;;;;;;;;;;;;;;22.01;35.52;101785.03;3088036;28;114103;-61
2021/01/13 01:36:34;;;;;;;;;;;;;;;22.00;35.54;101785.31;3087690;28;114298;-62
2021/01/13 01:38:05;;;;;;;;;;;;;;;21.98;35.76;101787.63;3096096;28;114748;-62
2021/01/13 01:39:36;;;;;;;;;;;;;;;21.97;35.62;101794.38;3091601;28;114771;-62
2021/01/13 01:41:09;;;;;;;;;;;;;;;21.95;35.84;101791.00;3093218;28;115205;-62
2021/01/13 01:42:48;;;;;;;;;;;;;;;21.93;35.79;101788.50;3097837;28;115182;-62
2021/01/13 01:44:19;;;;;;;;;;;;;;;21.91;35.72;101784.28;3096556;28;114656;-62
2021/01/13 01:45:50;;;;;;;;;;;;;;;21.89;35.60;101778.97;3096391;28;115930;-62
2021/01/13 01:47:39;;;;;;;;;;;;;;;21.87;35.66;101784.03;3086085;28;114019;-67
2021/01/13 01:49:13;;;;;;;;;;;;;;;21.85;35.81;101777.03;3085598;28;115159;-68
2021/01/13 01:50:45;;;;;;;;;;;;;;;21.83;35.84;101774.50;3097389;28;114232;-68
2021/01/13 01:52:17;;;;;;;;;;;;;;;21.82;35.83;101770.00;3085956;28;114002;-66
2021/01/13 01:53:48;;;;;;;;;;;;;;;21.80;36.16;101763.03;3087761;28;116001;-66
2021/01/13 01:55:23;;;;;;;;;;;;;;;21.78;36.04;101766.13;3088815;28;114073;-66
2021/01/13 01:56:54;;;;;;;;;;;;;;;21.77;36.02;101760.78;3095154;28;115444;-67
2021/01/13 01:58:29;;;;;;;;;;;;;;;21.74;36.05;101754.63;3086411;28;115212;-67
2021/01/13 02:00:01;;;;;;;;;;;;;;;21.73;35.72;101758.56;3094841;28;114302;-67
2021/01/13 02:01:33;;;;;;;;;;;;;;;21.72;35.87;101767.31;3096020;28;116021;-65
2021/01/13 02:03:13;;;;;;;;;;;;;;;21.69;35.93;101754.69;3086464;28;114977;-65
2021/01/13 02:04:44;;;;;;;;;;;;;;;21.68;35.99;101761.44;3095653;28;115902;-65
2021/01/13 02:06:17;;;;;;;;;;;;;;;21.67;36.23;101764.53;3104899;28;117023;-65
2021/01/13 02:07:49;;;;;;;;;;;;;;;21.65;35.97;101767.66;3091138;28;115571;-66
2021/01/13 02:09:20;;;;;;;;;;;;;;;21.63;36.01;101769.06;3099926;28;116082;-66
2021/01/13 02:10:51;;;;;;;;;;;;;;;21.61;36.18;101774.19;3091702;28;115743;-66
2021/01/13 02:12:27;;;;;;;;;;;;;;;21.59;36.19;101768.84;3093175;28;115747;-67
2021/01/13 02:13:58;;;;;;;;;;;;;;;21.58;36.41;101771.94;3088396;28;114777;-66
2021/01/13 02:15:29;;;;;;;;;;;;;;;21.56;36.46;101775.06;3090794;28;115754;-67
2021/01/13 02:17:03;;;;;;;;;;;;;;;21.55;36.15;101779.00;3095757;28;118004;-63
2021/01/13 02:18:35;;;;;;;;;;;;;;;21.53;36.08;101784.06;3094046;28;115299;-63
2021/01/13 02:20:11;;;;;;;;;;;;;;;21.50;36.37;101781.00;3089866;28;114663;-63
2021/01/13 02:21:47;;;;;;;;;;;;;;;21.49;36.57;101779.31;3089564;28;114653;-63
2021/01/13 02:23:28;;;;;;;;;;;;;;;21.46;36.24;101777.97;3093641;28;116019;-64
2021/01/13 02:25:23;;;;;;;;;;;;;;;21.44;36.54;101780.22;3088167;28;113892;-63
2021/01/13 02:27:13;;;;;;;;;;;;;;;21.43;36.36;101784.19;3072060;28;114644;-68
2021/01/13 02:28:51;;;;;;;;;;;;;;;21.40;36.55;101787.56;3095158;28;114095;-69
2021/01/13 02:30:25;;;;;;;;;;;;;;;21.39;36.19;101788.72;3090844;28;114341;-69
2021/01/13 02:32:29;;;;;;;;;;;;;;;21.36;36.49;101780.84;3095829;28;114022;-69
2021/01/13 02:34:07;;;;;;;;;;;;;;;21.34;36.44;101787.91;3091550;28;114936;-68
2021/01/13 02:35:53;;;;;;;;;;;;;;;21.33;36.14;101777.78;3101923;28;114322;-68
2021/01/13 02:37:41;;;;;;;;;;;;;;;21.30;36.08;101780.03;3095903;28;114418;-68
2021/01/13 02:39:17;;;;;;;;;;;;;;;21.29;36.23;101781.19;3098405;28;114061;-64
2021/01/13 02:40:48;;;;;;;;;;;;;;;21.29;35.98;101775.56;3087141;28;114305;-66
2021/01/13 02:42:28;;;;;;;;;;;;;;;21.23;36.31;101776.75;3094870;28;114117;-65
2021/01/13 02:44:01;;;;;;;;;;;;;;;21.22;36.07;101769.44;3094693;28;114157;-62
2021/01/13 02:45:37;;;;;;;;;;;;;;;21.22;36.36;101771.41;3087275;28;114250;-63
2021/01/13 02:47:15;;;;;;;;;;;;;;;21.21;36.37;101772.56;3093677;28;113977;-62
2021/01/13 02:48:57;;;;;;;;;;;;;;;21.18;36.27;101761.88;3091831;28;115630;-61
2021/01/13 02:50:29;;;;;;;;;;;;;;;21.17;36.03;101758.22;3099933;28;115260;-62
2021/01/13 02:52:10;;;;;;;;;;;;;;;21.12;36.10;101758.22;3097365;28;114821;-61
2021/01/13 02:53:47;;;;;;;;;;;;;;;21.13;36.25;101767.53;3099899;28;115149;-62
2021/01/13 02:55:19;;;;;;;;;;;;;;;21.12;36.19;101758.22;3086970;28;114252;-66
2021/01/13 02:57:10;;;;;;;;;;;;;;;21.09;36.44;101763.59;3110780;28;114033;-63
2021/01/13 02:58:46;;;;;;;;;;;;;;;21.08;36.30;101767.53;3090388;28;116695;-63
2021/01/13 03:00:18;;;;;;;;;;;;;;;21.06;36.55;101767.00;3095523;28;115309;-64
2021/01/13 03:01:49;;;;;;;;;;;;;;;21.03;36.38;101776.03;3090684;28;114975;-62
2021/01/13 03:03:21;;;;;;;;;;;;;;;21.01;36.36;101779.13;3099222;28;116002;-62
2021/01/13 03:04:52;;;;;;;;;;;;;;;21.00;36.47;101777.44;3091315;28;114233;-63
2021/01/13 03:06:28;;;;;;;;;;;;;;;20.99;36.50;101784.19;3095734;28;114110;-63
2021/01/13 03:07:59;;;;;;;;;;;;;;;20.96;36.27;101781.97;3095031;28;115084;-63
2021/01/13 03:09:32;;;;;;;;;;;;;;;20.96;36.44;101776.34;3101641;28;115207;-62
2021/01/13 03:11:05;;;;;;;;;;;;;;;20.95;36.44;101771.84;3096893;28;115898;-62
2021/01/13 03:12:38;;;;;;;;;;;;;;;20.89;36.38;101775.84;3096383;28;114379;-60
2021/01/13 03:14:11;;;;;;;;;;;;;;;20.91;36.54;101778.34;3098424;28;115209;-64
2021/01/13 03:15:42;;;;;;;;;;;;;;;20.88;36.74;101782.59;3099493;28;114544;-64
2021/01/13 03:17:30;;;;;;;;;;;;;;;20.86;36.50;101780.06;3086870;28;114797;-65
2021/01/13 03:19:06;;;;;;;;;;;;;;;20.84;36.41;101785.16;3097723;28;118187;-64
2021/01/13 03:20:43;;;;;;;;;;;;;;;20.83;36.47;101774.19;3099452;28;116098;-65
2021/01/13 03:22:22;;;;;;;;;;;;;;;20.81;36.57;101784.88;3099634;28;115879;-65
2021/01/13 03:24:00;;;;;;;;;;;;;;;20.78;36.33;101775.06;3098461;28;114748;-65
2021/01/13 03:25:36;;;;;;;;;;;;;;;20.77;36.36;101778.16;3095172;28;115849;-64
2021/01/13 03:27:09;;;;;;;;;;;;;;;20.74;36.67;101789.97;3099791;28;115700;-65
2021/01/13 03:28:40;;;;;;;;;;;;;;;20.73;36.54;101788.28;3103977;28;115711;-61
2021/01/13 03:30:12;;;;;;;;;;;;;;;20.71;37.05;101784.94;3098834;28;115864;-61
2021/01/13 03:32:02;;;;;;;;;;;;;;;20.69;36.74;101784.38;3101373;28;115836;-61
2021/01/13 03:33:33;;;;;;;;;;;;;;;20.68;36.62;101775.13;3097027;28;114416;-62
2021/01/13 03:35:12;;;;;;;;;;;;;;;20.66;36.73;101779.34;3098266;28;114048;-68
2021/01/13 03:36:44;;;;;;;;;;;;;;;20.64;36.94;101773.16;3106820;28;114149;-68
2021/01/13 03:38:16;;;;;;;;;;;;;;;20.63;36.90;101774.28;3094965;28;113832;-68
2021/01/13 03:39:49;;;;;;;;;;;;;;;20.59;37.01;101765.63;3092827;28;114108;-68
2021/01/13 03:41:21;;;;;;;;;;;;;;;20.59;36.87;101778.81;3098624;28;113971;-68
2021/01/13 03:42:53;;;;;;;;;;;;;;;20.58;36.86;101771.53;3098346;28;114272;-67
2021/01/13 03:44:32;;;;;;;;;;;;;;;20.57;36.81;101767.88;3095567;28;114208;-67
2021/01/13 03:46:04;;;;;;;;;;;;;;;20.55;36.89;101769.28;3094559;28;114607;-66
2021/01/13 03:48:14;;;;;;;;;;;;;;;20.55;36.66;101766.47;3090852;28;114203;-66
2021/01/13 03:50:04;;;;;;;;;;;;;;;20.50;36.75;101753.31;3083288;28;114155;-67
2021/01/13 03:51:55;;;;;;;;;;;;;;;20.49;36.77;101757.25;3080793;28;114221;-63
2021/01/13 03:53:27;;;;;;;;;;;;;;;20.47;36.98;101753.91;3068093;28;114204;-62
2021/01/13 03:55:02;;;;;;;;;;;;;;;20.46;36.93;101754.19;3089003;28;114398;-61
2021/01/13 03:56:44;;;;;;;;;;;;;;;20.46;36.64;101755.03;3103262;28;114560;-62
2021/01/13 03:58:45;;;;;;;;;;;;;;;20.42;36.71;101754.75;3099133;28;115372;-62
2021/01/13 04:00:16;;;;;;;;;;;;;;;20.41;36.91;101747.47;3067254;28;117047;-63
2021/01/13 04:01:52;;;;;;;;;;;;;;;20.39;36.94;101738.50;3087471;28;116661;-63
2021/01/13 04:03:31;;;;;;;;;;;;;;;20.39;36.76;101746.09;3093156;28;116136;-63
2021/01/13 04:05:15;;;;;;;;;;;;;;;20.38;36.58;101744.41;3090018;28;115194;-63
2021/01/13 04:06:50;;;;;;;;;;;;;;;20.36;36.58;101741.88;3093360;28;115267;-63
2021/01/13 04:08:25;;;;;;;;;;;;;;;20.35;36.56;101742.19;3093911;28;114850;-63
2021/01/13 04:09:57;;;;;;;;;;;;;;;20.33;36.85;101736.00;3097838;28;115308;-63
2021/01/13 04:11:29;;;;;;;;;;;;;;;20.31;36.82;101736.28;3098172;28;114386;-63
2021/01/13 04:13:15;;;;;;;;;;;;;;;20.30;36.84;101728.16;3098306;28;115227;-63
2021/01/13 04:14:51;;;;;;;;;;;;;;;20.30;36.79;101731.81;3086225;28;114338;-63
2021/01/13 04:16:23;;;;;;;;;;;;;;;20.30;36.57;101726.22;3087480;28;114917;-63
2021/01/13 04:17:55;;;;;;;;;;;;;;;20.27;36.87;101725.88;3084995;28;115868;-64
2021/01/13 04:19:27;;;;;;;;;;;;;;;20.28;36.84;101724.75;3089770;28;115424;-62
2021/01/13 04:20:59;;;;;;;;;;;;;;;20.27;36.64;101731.50;3091028;28;114784;-62
2021/01/13 04:22:48;;;;;;;;;;;;;;;20.25;36.73;101734.63;3088601;28;116520;-62
2021/01/13 04:24:35;;;;;;;;;;;;;;;20.22;37.10;101731.50;3096333;28;114813;-63
2021/01/13 04:26:06;;;;;;;;;;;;;;;20.21;37.18;101732.66;3099267;28;115850;-62
2021/01/13 04:27:37;;;;;;;;;;;;;;;20.20;37.21;101725.38;3098539;28;115049;-62
2021/01/13 04:29:09;;;;;;;;;;;;;;;20.17;37.06;101715.53;3090283;28;115354;-62
2021/01/13 04:30:40;;;;;;;;;;;;;;;20.17;37.24;101718.34;3089568;28;115094;-62
2021/01/13 04:32:12;;;;;;;;;;;;;;;20.16;37.16;101713.88;3098272;28;115100;-65
2021/01/13 04:33:44;;;;;;;;;;;;;;;20.15;37.56;101717.81;3086907;28;115862;-65
2021/01/13 04:35:15;;;;;;;;;;;;;;;20.13;37.44;101717.25;3091836;28;117030;-65
2021/01/13 04:36:49;;;;;;;;;;;;;;;20.11;37.42;101719.53;3098237;28;115066;-64
2021/01/13 04:38:24;;;;;;;;;;;;;;;20.10;37.63;101715.03;3095239;28;114468;-65
2021/01/13 04:39:56;;;;;;;;;;;;;;;20.10;37.42;101711.38;3093215;28;114783;-65
2021/01/13 04:41:29;;;;;;;;;;;;;;;20.08;37.79;101699.63;3096346;28;115905;-58
2021/01/13 04:43:02;;;;;;;;;;;;;;;20.07;37.41;101698.78;3091208;28;113793;-57
2021/01/13 04:44:34;;;;;;;;;;;;;;;20.06;37.64;101696.25;3089654;28;113948;-57
2021/01/13 04:46:07;;;;;;;;;;;;;;;20.05;37.45;101694.56;3089849;28;114306;-56
2021/01/13 04:47:51;;;;;;;;;;;;;;;20.03;37.72;101694.03;3097284;28;114059;-57
2021/01/13 04:49:25;;;;;;;;;;;;;;;20.02;37.59;101686.72;3089222;28;113927;-57
2021/01/13 04:50:57;;;;;;;;;;;;;;;20.01;37.47;101680.28;3085805;28;113938;-57
2021/01/13 04:52:45;;;;;;;;;;;;;;;20.02;37.67;101692.34;3092264;28;114040;-59
2021/01/13 04:54:40;;;;;;;;;;;;;;;19.95;37.69;101682.25;3085291;28;116632;-57
2021/01/13 04:56:26;;;;;;;;;;;;;;;19.93;37.64;101681.72;3100080;27;114099;-57
2021/01/13 04:58:09;;;;;;;;;;;;;;;19.93;37.62;101678.91;3094840;28;113947;-58
2021/01/13 05:00:01;;;;;;;;;;;;;;;19.91;37.52;101669.94;3098808;28;115226;-56
2021/01/13 05:01:59;;;;;;;;;;;;;;;19.90;37.67;101679.47;3096511;28;114025;-57
2021/01/13 05:03:39;;;;;;;;;;;;;;;19.89;37.82;101675.00;3093791;28;113964;-57
2021/01/13 05:05:19;;;;;;;;;;;;;;;19.87;38.11;101668.00;3098165;28;114607;-56
2021/01/13 05:07:10;;;;;;;;;;;;;;;19.87;37.96;101670.78;3096450;28;114323;-56
2021/01/13 05:08:55;;;;;;;;;;;;;;;19.86;37.92;101671.91;3097966;28;114505;-57
2021/01/13 05:10:27;;;;;;;;;;;;;;;19.87;38.10;101668.84;3092827;28;115298;-56
2021/01/13 05:12:05;;;;;;;;;;;;;;;19.87;38.42;101666.03;3094607;28;114583;-56
2021/01/13 05:13:39;;;;;;;;;;;;;;;19.90;38.43;101671.06;3090307;28;115078;-56
2021/01/13 05:15:15;;;;;;;;;;;;;;;19.94;38.27;101668.53;3094457;28;117356;-56
2021/01/13 05:16:49;;;;;;;;;;;;;;;19.96;38.22;101661.50;3088625;28;114545;-57
2021/01/13 05:18:36;;;;;;;;;;;;;;;19.99;38.27;101657.28;3090067;28;115418;-57
2021/01/13 05:20:07;;;;;;;;;;;;;;;20.03;38.37;101650.00;3092137;28;114532;-57
2021/01/13 05:21:40;;;;;;;;;;;;;;;20.06;38.43;101651.38;3093508;28;114386;-57
2021/01/13 05:23:12;;;;;;;;;;;;;;;20.09;38.36;101653.59;3093692;28;113890;-57
2021/01/13 05:24:49;;;;;;;;;;;;;;;20.12;38.28;101656.69;3088715;28;115298;-57
2021/01/13 05:26:22;;;;;;;;;;;;;;;20.17;38.56;101659.44;3098065;28;115260;-57
2021/01/13 05:28:05;;;;;;;;;;;;;;;20.20;38.65;101656.06;3101921;28;114189;-57
2021/01/13 05:29:37;;;;;;;;;;;;;;;20.26;39.20;101660.50;3107859;28;115685;-57
2021/01/13 05:31:11;;;;;;;;;;;;;;;20.31;38.77;101657.69;3088780;28;115900;-58
2021/01/13 05:32:43;;;;;;;;;;;;;;;20.36;38.36;101654.03;3090427;28;114894;-57
2021/01/13 05:34:17;;;;;;;;;;;;;;;20.38;38.45;101655.44;3096433;28;115313;-57
2021/01/13 05:35:52;;;;;;;;;;;;;;;20.44;38.28;101658.22;3095754;28;115828;-57
2021/01/13 05:37:41;;;;;;;;;;;;;;;20.49;38.17;101658.97;3095150;28;115937;-58
2021/01/13 05:39:22;;;;;;;;;;;;;;;20.55;38.59;101654.19;3096995;28;115802;-57
2021/01/13 05:40:54;;;;;;;;;;;;;;;20.60;38.41;101657.81;3095608;28;115028;-58
2021/01/13 05:42:25;;;;;;;;;;;;;;;20.64;38.12;101661.69;3096496;28;114858;-57
2021/01/13 05:43:57;;;;;;;;;;;;;;;20.69;38.03;101661.66;3096734;28;115855;-58
2021/01/13 05:45:30;;;;;;;;;;;;;;;20.74;38.03;101657.97;3095473;28;115776;-58
2021/01/13 05:47:03;;;;;;;;;;;;;;;20.77;38.22;101655.41;3089012;28;114781;-57
2021/01/13 05:48:36;;;;;;;;;;;;;;;20.82;37.83;101646.13;3096799;28;114686;-57
2021/01/13 05:50:08;;;;;;;;;;;;;;;20.85;37.66;101651.13;3099318;28;115913;-58
2021/01/13 05:51:41;;;;;;;;;;;;;;;20.89;37.58;101648.59;3101690;28;115931;-58
2021/01/13 05:53:13;;;;;;;;;;;;;;;20.93;37.54;101650.53;3098713;28;115967;-58
2021/01/13 05:54:44;;;;;;;;;;;;;;;20.96;37.54;101644.31;3098643;28;114281;-57
2021/01/13 05:56:19;;;;;;;;;;;;;;;21.00;37.63;101642.59;3092815;28;114339;-57
2021/01/13 05:57:57;;;;;;;;;;;;;;;21.05;37.40;101638.88;3083202;28;114015;-58
2021/01/13 05:59:30;;;;;;;;;;;;;;;21.10;37.48;101631.25;3087541;28;113945;-57
2021/01/13 06:01:20;;;;;;;;;;;;;;;21.14;37.59;101638.00;3096514;28;113993;-57
2021/01/13 06:02:58;;;;;;;;;;;;;;;21.19;37.31;101625.88;3099031;28;114113;-57
2021/01/13 06:04:30;;;;;;;;;;;;;;;21.23;37.55;101627.78;3094051;28;113857;-64
2021/01/13 06:06:01;;;;;;;;;;;;;;;21.27;37.41;101631.66;3094729;28;113942;-58
2021/01/13 06:07:33;;;;;;;;;;;;;;;21.32;37.37;101624.31;3099456;28;113842;-57
2021/01/13 06:09:05;;;;;;;;;;;;;;;21.35;37.33;101629.38;3098730;28;114883;-57
2021/01/13 06:10:49;;;;;;;;;;;;;;;21.40;37.24;101632.09;3089422;28;113955;-57
2021/01/13 06:12:22;;;;;;;;;;;;;;;21.43;37.19;101625.91;3100412;28;113916;-57
2021/01/13 06:13:53;;;;;;;;;;;;;;;21.45;37.22;101632.88;3094601;28;114192;-57
2021/01/13 06:15:26;;;;;;;;;;;;;;;21.49;37.23;101636.78;3098845;28;115423;-59
2021/01/13 06:17:04;;;;;;;;;;;;;;;21.52;37.06;101622.13;3089432;28;115113;-56
2021/01/13 06:18:39;;;;;;;;;;;;;;;21.56;37.21;101623.22;3092028;28;114464;-58
2021/01/13 06:20:12;;;;;;;;;;;;;;;21.60;37.37;101623.44;3096368;28;115406;-57
2021/01/13 06:21:44;;;;;;;;;;;;;;;21.63;37.24;101625.66;3093105;28;115354;-57
2021/01/13 06:23:16;;;;;;;;;;;;;;;21.65;36.88;101627.03;3089629;28;114671;-57
2021/01/13 06:24:47;;;;;;;;;;;;;;;21.67;36.92;101624.75;3089718;28;114550;-57
2021/01/13 06:26:20;;;;;;;;;;;;;;;21.71;37.07;101619.38;3096862;28;114424;-57
2021/01/13 06:27:56;;;;;;;;;;;;;;;21.73;37.10;101620.75;3087645;28;114754;-57
2021/01/13 06:29:46;;;;;;;;;;;;;;;21.76;36.89;101616.47;3086363;28;114877;-57
2021/01/13 06:31:24;;;;;;;;;;;;;;;21.80;37.46;101620.41;3086657;28;114928;-56
2021/01/13 06:33:02;;;;;;;;;;;;;;;21.83;37.27;101621.75;3089548;28;114612;-56
2021/01/13 06:34:44;;;;;;;;;;;;;;;21.86;36.85;101621.13;3096738;28;115349;-56
2021/01/13 06:36:24;;;;;;;;;;;;;;;21.89;37.03;101617.75;3105561;28;117205;-56
2021/01/13 06:37:58;;;;;;;;;;;;;;;21.91;36.66;101626.69;3099278;28;115878;-56
2021/01/13 06:39:31;;;;;;;;;;;;;;;21.93;37.00;101622.50;3087591;28;115880;-56
2021/01/13 06:41:03;;;;;;;;;;;;;;;21.96;37.10;101623.84;3088871;28;115956;-56
2021/01/13 06:42:34;;;;;;;;;;;;;;;21.98;36.61;101625.25;3099030;28;115937;-57
2021/01/13 06:44:06;;;;;;;;;;;;;;;22.01;36.86;101627.44;3089042;28;114919;-57
2021/01/13 06:45:37;;;;;;;;;;;;;;;22.03;36.64;101627.97;3087119;28;116621;-57
2021/01/13 06:47:09;;;;;;;;;;;;;;;22.05;36.38;101610.78;3093289;28;114711;-57
2021/01/13 06:48:40;;;;;;;;;;;;;;;22.08;36.77;101619.47;3094539;28;116042;-57
2021/01/13 06:50:11;;;;;;;;;;;;;;;22.11;36.42;101618.03;3090913;28;116696;-62
2021/01/13 06:51:44;;;;;;;;;;;;;;;22.12;36.79;101614.09;3097868;28;116060;-63
2021/01/13 06:53:18;;;;;;;;;;;;;;;22.15;36.41;101625.56;3090811;28;115859;-65
2021/01/13 06:54:50;;;;;;;;;;;;;;;22.16;36.15;101618.81;3094913;28;114538;-65
2021/01/13 06:56:21;;;;;;;;;;;;;;;22.18;36.25;101615.66;3090359;28;116291;-64
2021/01/13 06:57:54;;;;;;;;;;;;;;;22.22;36.24;101613.06;3098182;28;114901;-64
2021/01/13 06:59:28;;;;;;;;;;;;;;;22.24;36.20;101617.28;3089608;28;114559;-63
2021/01/13 07:01:03;;;;;;;;;;;;;;;22.27;36.90;101616.66;3093366;28;114176;-61
2021/01/13 07:02:35;;;;;;;;;;;;;;;22.30;36.64;101615.22;3096955;28;114218;-64
2021/01/13 07:04:06;;;;;;;;;;;;;;;22.32;36.53;101612.94;3096399;28;113959;-64
2021/01/13 07:05:37;;;;;;;;;;;;;;;22.34;36.24;101608.69;3096233;28;114628;-63
2021/01/13 07:07:12;;;;;;;;;;;;;;;22.36;36.43;101608.34;3089074;28;114117;-63
2021/01/13 07:08:43;;;;;;;;;;;;;;;22.38;36.26;101612.56;3093739;28;114234;-64
2021/01/13 07:10:14;;;;;;;;;;;;;;;22.40;36.13;101607.44;3099251;28;114252;-63
2021/01/13 07:11:48;;;;;;;;;;;;;;;22.42;36.07;101608.00;3098377;28;113834;-63
2021/01/13 07:13:19;;;;;;;;;;;;;;;22.44;36.16;101610.50;3099984;28;114366;-63
2021/01/13 07:14:51;;;;;;;;;;;;;;;22.46;36.18;101603.41;3096525;28;114113;-63
2021/01/13 07:16:27;;;;;;;;;;;;;;;22.47;36.23;101604.25;3097020;28;114145;-63
2021/01/13 07:18:01;;;;;;;;;;;;;;;22.50;36.13;101603.63;3095904;28;114150;-63
2021/01/13 07:19:33;;;;;;;;;;;;;;;22.52;36.00;101602.22;3098851;28;114813;-64
2021/01/13 07:21:05;;;;;;;;;;;;;;;22.53;35.96;101603.84;3102291;28;115441;-63
2021/01/13 07:22:37;;;;;;;;;;;;;;;22.56;35.86;101616.50;3095951;28;114269;-64
2021/01/13 07:24:15;;;;;;;;;;;;;;;22.57;35.73;101613.41;3097085;28;115933;-63
2021/01/13 07:25:48;;;;;;;;;;;;;;;22.60;36.12;101606.28;3095953;28;115221;-65
2021/01/13 07:27:39;;;;;;;;;;;;;;;22.62;35.97;101606.84;3096905;28;115199;-65
2021/01/13 07:29:10;;;;;;;;;;;;;;;22.64;35.71;101601.72;3095889;28;114332;-66
2021/01/13 07:30:43;;;;;;;;;;;;;;;22.66;35.88;101607.91;3096165;28;115160;-66
2021/01/13 07:32:19;;;;;;;;;;;;;;;22.69;35.84;101604.47;3098792;28;115531;-65
2021/01/13 07:33:53;;;;;;;;;;;;;;;22.71;35.74;101604.19;3094684;28;116160;-65
2021/01/13 07:35:29;;;;;;;;;;;;;;;22.73;35.66;101607.53;3097084;28;114600;-64
2021/01/13 07:37:29;;;;;;;;;;;;;;;22.74;35.75;101595.97;3090282;28;115310;-65
2021/01/13 07:39:03;;;;;;;;;;;;;;;22.77;35.72;101602.94;3088460;28;116632;-65
2021/01/13 07:40:36;;;;;;;;;;;;;;;22.78;35.73;101605.47;3092948;28;114384;-64
2021/01/13 07:42:11;;;;;;;;;;;;;;;22.80;35.91;101603.19;3091886;28;115064;-66
2021/01/13 07:43:46;;;;;;;;;;;;;;;22.82;35.78;101594.41;3098136;28;115187;-65
2021/01/13 07:45:19;;;;;;;;;;;;;;;22.84;35.69;101597.75;3097868;28;115973;-64
2021/01/13 07:47:16;;;;;;;;;;;;;;;22.85;35.86;101605.88;3093295;28;115863;-64
2021/01/13 07:48:50;;;;;;;;;;;;;;;22.88;35.84;101602.47;3071300;28;114670;-64
2021/01/13 07:50:22;;;;;;;;;;;;;;;22.90;35.88;101605.81;3077115;28;115943;-64
2021/01/13 07:51:54;;;;;;;;;;;;;;;22.91;35.68;101606.66;3094204;28;115888;-65
2021/01/13 07:53:29;;;;;;;;;;;;;;;22.93;35.88;101598.72;3092465;28;114603;-64
2021/01/13 07:55:02;;;;;;;;;;;;;;;22.94;35.69;101609.66;3094154;28;113775;-64
2021/01/13 07:56:35;;;;;;;;;;;;;;;22.96;35.59;101609.38;3093433;28;115701;-64
2021/01/13 07:58:17;;;;;;;;;;;;;;;22.97;35.80;101614.72;3098190;28;116318;-64
2021/01/13 08:00:06;;;;;;;;;;;;;;;23.00;35.66;101607.59;3092727;28;115849;-65
2021/01/13 08:01:59;;;;;;;;;;;;;;;23.02;35.75;101613.78;3095032;28;114742;-64
2021/01/13 08:03:43;;;;;;;;;;;;;;;23.04;35.97;101605.84;3094380;28;116114;-66
2021/01/13 08:05:17;;;;;;;;;;;;;;;23.06;36.05;101606.38;3092618;28;115720;-64